Ipava, Illinois
Current Conditions -  °F | °C
As of 7:55 AM on Wednesday 26 Nov 2014 (Local Time) from KMQB Reporting Station
Clear Clear  
Wind Chill: 18°   Ceiling: Unl
Heat Index: 28°   Visibility: 7mi
Dew Point: 26°   Wind: 10mph
Humidity: 95%   Direction: 120°ESE
Pressure: 30.06"   Gusts: NA
Location:  40.35°N, 90.32°W
Report Text: KMQB 261355Z AUTO 12009KT 7SM CLR M02/M03 A3006 RMK AO2 T10251032
Loading
Personal Weather Stations






























Interactive Weather Map New forecast layout! Learn more

10-Day Weather Forecast

Advertisements
Track Severe Weather on mobile